Time;durP1;ratioP1;P1;durP2;ratioP2;P2;SDS_P1;SDS_P2;PMS_P1;PMS_P2;Temp;Humidity;BMP_temperature;BMP_pressure;BME280_temperature;BME280_humidity;BME280_pressure;Samples;Min_cycle;Max_cycle;Signal;HPM_P1;HPM_P2
2024/01/21 00:18:34;;;;;;;4.55;2.58;;;;;;;;;;5069220;28;20379;-77
2024/01/21 00:20:59;;;;;;;3.75;2.20;;;;;;;;;;5069268;28;20544;-78
2024/01/21 00:23:25;;;;;;;4.00;2.28;;;;;;;;;;5068955;28;20031;-77
2024/01/21 00:25:51;;;;;;;4.88;2.88;;;;;;;;;;5067184;28;20074;-77
2024/01/21 00:28:17;;;;;;;4.82;2.67;;;;;;;;;;5069051;28;20052;-77
2024/01/21 00:30:43;;;;;;;6.50;2.78;;;;;;;;;;5067714;28;20452;-77
2024/01/21 00:33:09;;;;;;;3.80;2.20;;;;;;;;;;5069078;28;20032;-78
2024/01/21 00:35:35;;;;;;;3.95;2.20;;;;;;;;;;5068339;28;20054;-77
2024/01/21 00:38:00;;;;;;;6.63;3.30;;;;;;;;;;5050614;28;20486;-77
2024/01/21 00:40:26;;;;;;;4.35;2.53;;;;;;;;;;5068812;28;20410;-77
2024/01/21 00:42:52;;;;;;;4.15;2.42;;;;;;;;;;5067454;28;20032;-77
2024/01/21 00:45:18;;;;;;;4.15;2.50;;;;;;;;;;5068229;28;20510;-77
2024/01/21 00:47:43;;;;;;;3.88;2.13;;;;;;;;;;5067239;28;20163;-76
2024/01/21 00:50:09;;;;;;;3.20;1.70;;;;;;;;;;5067796;28;20036;-77
2024/01/21 00:52:35;;;;;;;3.72;1.80;;;;;;;;;;5066980;28;20082;-78
2024/01/21 00:55:00;;;;;;;5.07;2.35;;;;;;;;;;5065212;28;20047;-77
2024/01/21 00:57:26;;;;;;;4.03;2.13;;;;;;;;;;5065811;28;20032;-77
2024/01/21 00:59:52;;;;;;;3.00;1.70;;;;;;;;;;5049674;28;20041;-77
2024/01/21 01:02:18;;;;;;;4.53;2.25;;;;;;;;;;5068537;28;20036;-77
2024/01/21 01:04:43;;;;;;;4.15;2.25;;;;;;;;;;5066940;28;20037;-77
2024/01/21 01:07:09;;;;;;;3.47;1.67;;;;;;;;;;5066629;28;20055;-77
2024/01/21 01:09:36;;;;;;;3.78;2.13;;;;;;;;;;5067087;28;20476;-77
2024/01/21 01:12:02;;;;;;;3.30;1.92;;;;;;;;;;5066736;28;20572;-77
2024/01/21 01:14:28;;;;;;;2.88;2.00;;;;;;;;;;5067884;28;20576;-77
2024/01/21 01:16:53;;;;;;;4.53;2.58;;;;;;;;;;5067754;28;20033;-77
2024/01/21 01:19:19;;;;;;;4.00;2.28;;;;;;;;;;5067809;28;20037;-77
2024/01/21 01:21:45;;;;;;;3.30;1.80;;;;;;;;;;5067898;28;20032;-78
2024/01/21 01:24:10;;;;;;;3.00;1.70;;;;;;;;;;5066508;28;20406;-78
2024/01/21 01:26:36;;;;;;;3.85;1.70;;;;;;;;;;5067800;28;20033;-77
2024/01/21 01:29:02;;;;;;;4.72;2.13;;;;;;;;;;5058152;28;20031;-77
2024/01/21 01:31:27;;;;;;;2.58;1.75;;;;;;;;;;5053697;28;20483;-78
2024/01/21 01:33:53;;;;;;;4.72;2.00;;;;;;;;;;5054697;28;20390;-77
2024/01/21 01:36:19;;;;;;;3.40;1.90;;;;;;;;;;5054469;28;20033;-77
2024/01/21 01:38:45;;;;;;;4.53;2.10;;;;;;;;;;5053336;28;20112;-78
2024/01/21 01:41:11;;;;;;;6.00;2.50;;;;;;;;;;5034135;28;20037;-78
2024/01/21 01:43:36;;;;;;;4.88;2.20;;;;;;;;;;5054338;28;20029;-78
2024/01/21 01:46:03;;;;;;;5.20;2.35;;;;;;;;;;5053462;28;20044;-78
2024/01/21 01:48:31;;;;;;;2.92;1.80;;;;;;;;;;5054081;28;20031;-77
2024/01/21 01:50:59;;;;;;;3.95;1.70;;;;;;;;;;5054241;28;20102;-78
2024/01/21 01:53:26;;;;;;;4.97;2.47;;;;;;;;;;5052699;28;20039;-77
2024/01/21 01:55:52;;;;;;;5.03;2.53;;;;;;;;;;5052218;28;20174;-77
2024/01/21 01:58:18;;;;;;;4.05;2.17;;;;;;;;;;5053985;28;20096;-78
2024/01/21 02:00:47;;;;;;;4.53;2.10;;;;;;;;;;5054032;28;20033;-78
2024/01/21 02:03:14;;;;;;;3.50;2.00;;;;;;;;;;5053716;28;20080;-78
2024/01/21 02:05:40;;;;;;;3.95;2.17;;;;;;;;;;5050809;28;20415;-78
2024/01/21 02:08:06;;;;;;;9.90;3.83;;;;;;;;;;5052372;28;20029;-78
2024/01/21 02:10:32;;;;;;;5.65;3.05;;;;;;;;;;5052573;28;20029;-78
2024/01/21 02:12:57;;;;;;;5.90;2.60;;;;;;;;;;5053989;28;20035;-78
2024/01/21 02:15:23;;;;;;;5.15;2.90;;;;;;;;;;5053995;28;20032;-78
2024/01/21 02:17:49;;;;;;;7.32;3.97;;;;;;;;;;5053872;28;20122;-77
2024/01/21 02:20:16;;;;;;;5.70;3.30;;;;;;;;;;5053870;28;20028;-78
2024/01/21 02:22:42;;;;;;;8.10;3.00;;;;;;;;;;5052873;28;20033;-78
2024/01/21 02:25:09;;;;;;;5.45;3.03;;;;;;;;;;5053720;28;20039;-78
2024/01/21 02:27:37;;;;;;;5.38;2.22;;;;;;;;;;5053771;28;20021;-78
2024/01/21 02:30:04;;;;;;;3.78;2.03;;;;;;;;;;5052650;28;20032;-78
2024/01/21 02:32:29;;;;;;;4.03;2.53;;;;;;;;;;5053625;28;20041;-77
2024/01/21 02:34:55;;;;;;;3.78;2.25;;;;;;;;;;5053720;28;20024;-77
2024/01/21 02:37:21;;;;;;;3.05;1.55;;;;;;;;;;5052190;28;20037;-77
2024/01/21 02:39:48;;;;;;;5.28;2.33;;;;;;;;;;5052835;28;20159;-77
2024/01/21 02:42:14;;;;;;;3.13;1.55;;;;;;;;;;5053183;28;20075;-78
2024/01/21 02:44:39;;;;;;;4.05;2.28;;;;;;;;;;5051985;28;20131;-76
2024/01/21 02:47:06;;;;;;;3.83;2.17;;;;;;;;;;5053308;28;20025;-77
2024/01/21 02:49:32;;;;;;;2.78;1.52;;;;;;;;;;5053269;28;20028;-76
2024/01/21 02:52:00;;;;;;;3.45;1.65;;;;;;;;;;5051755;28;20032;-77
2024/01/21 02:54:26;;;;;;;8.25;3.58;;;;;;;;;;5050827;28;20042;-77
2024/01/21 02:56:51;;;;;;;6.68;2.95;;;;;;;;;;5051540;28;20029;-77
2024/01/21 02:59:17;;;;;;;1.70;0.88;;;;;;;;;;5051683;28;20033;-78
2024/01/21 03:01:43;;;;;;;2.25;1.10;;;;;;;;;;5053092;28;20398;-76
2024/01/21 03:04:13;;;;;;;2.00;1.02;;;;;;;;;;5052877;28;20013;-77
2024/01/21 03:06:39;;;;;;;1.90;1.00;;;;;;;;;;5052810;28;20036;-77
2024/01/21 03:09:06;;;;;;;0.65;0.65;;;;;;;;;;5052921;28;20132;-77
2024/01/21 03:11:32;;;;;;;4.57;0.70;;;;;;;;;;5052532;28;20473;-77
2024/01/21 03:13:58;;;;;;;1.67;1.13;;;;;;;;;;5034894;28;20132;-77
2024/01/21 03:16:24;;;;;;;7.57;2.45;;;;;;;;;;5052677;28;20120;-78
2024/01/21 03:18:50;;;;;;;7.30;1.77;;;;;;;;;;5052713;28;20040;-77
2024/01/21 03:21:16;;;;;;;1.45;0.90;;;;;;;;;;5052961;28;20040;-77
2024/01/21 03:23:41;;;;;;;2.78;1.27;;;;;;;;;;5052911;28;20040;-77
2024/01/21 03:26:07;;;;;;;2.88;0.80;;;;;;;;;;5051499;28;20113;-77
2024/01/21 03:28:34;;;;;;;1.45;0.80;;;;;;;;;;5051263;28;20029;-77
2024/01/21 03:31:00;;;;;;;5.90;2.70;;;;;;;;;;5052425;28;20135;-77
2024/01/21 03:33:26;;;;;;;2.88;1.70;;;;;;;;;;5052654;28;20116;-77
2024/01/21 03:35:52;;;;;;;3.08;1.40;;;;;;;;;;5052394;28;20169;-78
2024/01/21 03:38:18;;;;;;;2.28;1.30;;;;;;;;;;5050914;28;20064;-77
2024/01/21 03:40:44;;;;;;;2.83;1.10;;;;;;;;;;5052196;28;20033;-77
2024/01/21 03:43:10;;;;;;;2.63;0.95;;;;;;;;;;5034415;28;20124;-77
2024/01/21 03:45:37;;;;;;;3.30;1.98;;;;;;;;;;5052328;28;20051;-77
2024/01/21 03:48:03;;;;;;;2.05;1.00;;;;;;;;;;5033605;28;20044;-78
2024/01/21 03:50:28;;;;;;;2.42;1.25;;;;;;;;;;5049671;28;20039;-77
2024/01/21 03:52:54;;;;;;;2.47;1.48;;;;;;;;;;5059874;28;20123;-77
2024/01/21 03:55:21;;;;;;;2.97;0.80;;;;;;;;;;5038404;28;20038;-77
2024/01/21 03:57:47;;;;;;;0.95;0.70;;;;;;;;;;5012529;28;20080;-76
2024/01/21 04:00:14;;;;;;;1.67;0.90;;;;;;;;;;5014176;28;20116;-76
2024/01/21 04:02:40;;;;;;;0.82;0.50;;;;;;;;;;5031058;28;20076;-76
2024/01/21 04:05:06;;;;;;;0.75;0.60;;;;;;;;;;5030397;28;20088;-76
2024/01/21 04:07:32;;;;;;;0.77;0.60;;;;;;;;;;5031938;28;20489;-77
2024/01/21 04:09:59;;;;;;;0.35;0.35;;;;;;;;;;5030828;28;20471;-77
2024/01/21 04:12:24;;;;;;;0.75;0.60;;;;;;;;;;5031735;28;20438;-77
2024/01/21 04:14:50;;;;;;;0.55;0.50;;;;;;;;;;5006687;28;20037;-77
2024/01/21 04:17:16;;;;;;;0.77;0.50;;;;;;;;;;5011621;28;20080;-77
2024/01/21 04:19:41;;;;;;;0.52;0.43;;;;;;;;;;5010637;28;20030;-77
2024/01/21 04:22:07;;;;;;;2.05;0.70;;;;;;;;;;5012337;28;20029;-77
2024/01/21 04:24:34;;;;;;;0.98;0.80;;;;;;;;;;5011917;28;20372;-75
2024/01/21 04:26:59;;;;;;;1.83;0.75;;;;;;;;;;5011893;28;20032;-77
2024/01/21 04:29:25;;;;;;;1.33;0.80;;;;;;;;;;5012192;28;20034;-77
2024/01/21 04:31:51;;;;;;;1.30;0.90;;;;;;;;;;5011982;28;20108;-77
2024/01/21 04:34:17;;;;;;;2.10;1.20;;;;;;;;;;5011821;28;20405;-77
2024/01/21 04:36:43;;;;;;;1.42;0.88;;;;;;;;;;4990762;28;20045;-77
2024/01/21 04:39:09;;;;;;;1.95;1.15;;;;;;;;;;5007599;28;20025;-75
2024/01/21 04:41:35;;;;;;;4.20;1.63;;;;;;;;;;5011857;28;20162;-76
2024/01/21 04:44:01;;;;;;;0.90;0.75;;;;;;;;;;5009975;28;20125;-75
2024/01/21 04:46:27;;;;;;;0.75;0.70;;;;;;;;;;5011683;28;20430;-75
2024/01/21 04:48:53;;;;;;;1.30;0.93;;;;;;;;;;4994168;28;20088;-77
2024/01/21 04:51:20;;;;;;;1.77;0.70;;;;;;;;;;5011649;28;20068;-77
2024/01/21 04:53:45;;;;;;;2.08;0.90;;;;;;;;;;5011734;28;20045;-77
2024/01/21 04:56:18;;;;;;;2.63;1.05;;;;;;;;;;5011507;28;20030;-77
2024/01/21 04:58:45;;;;;;;2.40;1.17;;;;;;;;;;5011647;28;20426;-77
2024/01/21 05:01:11;;;;;;;1.02;0.60;;;;;;;;;;5009862;28;20021;-77
2024/01/21 05:03:36;;;;;;;5.15;3.22;;;;;;;;;;5011064;28;20038;-77
2024/01/21 05:06:03;;;;;;;2.17;1.05;;;;;;;;;;5015257;28;20072;-77
2024/01/21 05:08:29;;;;;;;1.77;0.80;;;;;;;;;;5014106;28;20033;-77
2024/01/21 05:10:55;;;;;;;3.15;1.00;;;;;;;;;;5015111;28;20037;-77
2024/01/21 05:13:21;;;;;;;1.80;1.00;;;;;;;;;;5013776;28;20068;-76
2024/01/21 05:15:46;;;;;;;4.55;1.10;;;;;;;;;;5013710;28;20026;-77
2024/01/21 05:18:12;;;;;;;2.90;1.13;;;;;;;;;;5013704;28;20396;-76
2024/01/21 05:20:38;;;;;;;2.03;0.90;;;;;;;;;;5014978;28;20399;-76
2024/01/21 05:23:03;;;;;;;1.13;0.88;;;;;;;;;;5014870;28;20029;-77
2024/01/21 05:25:29;;;;;;;1.98;0.85;;;;;;;;;;5013795;28;20037;-77
2024/01/21 05:27:56;;;;;;;1.80;0.90;;;;;;;;;;5013724;28;20040;-77
2024/01/21 05:30:22;;;;;;;1.65;1.08;;;;;;;;;;5013310;28;20029;-77
2024/01/21 05:32:50;;;;;;;1.33;1.10;;;;;;;;;;4997185;28;20034;-77
2024/01/21 05:35:18;;;;;;;3.78;1.73;;;;;;;;;;5014408;28;20044;-77
2024/01/21 05:37:44;;;;;;;2.75;1.40;;;;;;;;;;5014351;28;20049;-77
2024/01/21 05:40:11;;;;;;;9.43;2.58;;;;;;;;;;5012835;28;20042;-77
2024/01/21 05:42:38;;;;;;;4.10;2.20;;;;;;;;;;5012108;28;20527;-78
2024/01/21 05:45:04;;;;;;;7.40;2.28;;;;;;;;;;5013952;28;20022;-78
2024/01/21 05:47:29;;;;;;;6.47;2.05;;;;;;;;;;5013424;28;20033;-77
2024/01/21 05:49:56;;;;;;;2.10;1.33;;;;;;;;;;5014482;28;20520;-77
2024/01/21 05:52:22;;;;;;;4.82;2.22;;;;;;;;;;5013061;28;20084;-77
2024/01/21 05:54:47;;;;;;;2.55;1.85;;;;;;;;;;5013801;28;20036;-77
2024/01/21 05:57:13;;;;;;;2.13;1.25;;;;;;;;;;5013438;28;20033;-77
2024/01/21 05:59:39;;;;;;;1.85;1.10;;;;;;;;;;5013170;28;20029;-76
2024/01/21 06:02:07;;;;;;;1.70;1.10;;;;;;;;;;5013408;28;20068;-77
2024/01/21 06:04:33;;;;;;;1.45;1.00;;;;;;;;;;5013313;28;20083;-77
2024/01/21 06:07:00;;;;;;;2.20;0.90;;;;;;;;;;5013044;28;20037;-77
2024/01/21 06:09:25;;;;;;;1.65;1.10;;;;;;;;;;5013936;28;20022;-77
2024/01/21 06:11:51;;;;;;;3.20;1.20;;;;;;;;;;5012609;28;20491;-77
2024/01/21 06:14:18;;;;;;;3.60;1.50;;;;;;;;;;5013892;28;20040;-77
2024/01/21 06:16:44;;;;;;;1.80;1.30;;;;;;;;;;5012534;28;20125;-76
2024/01/21 06:19:09;;;;;;;1.25;0.95;;;;;;;;;;5014068;28;20050;-77
2024/01/21 06:21:42;;;;;;;1.45;1.02;;;;;;;;;;5013855;28;20025;-77
2024/01/21 06:24:07;;;;;;;2.20;1.00;;;;;;;;;;5013799;28;20444;-76
2024/01/21 06:26:37;;;;;;;1.88;1.17;;;;;;;;;;5013714;28;20033;-78
2024/01/21 06:29:04;;;;;;;2.50;1.38;;;;;;;;;;5012613;28;20448;-79
2024/01/21 06:31:31;;;;;;;1.50;1.00;;;;;;;;;;5011507;28;20030;-79
2024/01/21 06:33:57;;;;;;;2.20;1.35;;;;;;;;;;5012904;28;20407;-78
2024/01/21 06:36:23;;;;;;;3.45;2.00;;;;;;;;;;4995714;28;20048;-78
2024/01/21 06:38:49;;;;;;;2.67;1.40;;;;;;;;;;5013375;28;20034;-79
2024/01/21 06:41:15;;;;;;;2.88;1.55;;;;;;;;;;4994392;28;20030;-79
2024/01/21 06:43:41;;;;;;;2.85;2.10;;;;;;;;;;5012962;28;20484;-78
2024/01/21 06:46:09;;;;;;;4.03;1.83;;;;;;;;;;5012873;28;20117;-79
2024/01/21 06:48:35;;;;;;;2.63;1.55;;;;;;;;;;5011548;28;20033;-78
2024/01/21 06:51:11;;;;;;;3.00;1.70;;;;;;;;;;5011989;28;20469;-80
2024/01/21 06:53:38;;;;;;;2.20;1.60;;;;;;;;;;5012972;28;20048;-80
2024/01/21 06:56:09;;;;;;;3.75;1.40;;;;;;;;;;5012627;28;20108;-80
2024/01/21 06:58:34;;;;;;;3.50;1.85;;;;;;;;;;5011073;28;20049;-79
2024/01/21 07:01:00;;;;;;;1.83;1.27;;;;;;;;;;5012856;28;20045;-79
2024/01/21 07:03:26;;;;;;;2.00;1.55;;;;;;;;;;4994893;28;20029;-79
2024/01/21 07:05:53;;;;;;;3.13;1.77;;;;;;;;;;5003660;28;20045;-80
2024/01/21 07:08:19;;;;;;;2.97;1.70;;;;;;;;;;5012774;28;20049;-79
2024/01/21 07:10:45;;;;;;;2.80;1.73;;;;;;;;;;5010999;28;20064;-79
2024/01/21 07:13:11;;;;;;;4.45;2.03;;;;;;;;;;5011322;28;20040;-79
2024/01/21 07:15:37;;;;;;;2.97;1.70;;;;;;;;;;5012122;28;20040;-79
2024/01/21 07:18:03;;;;;;;2.28;1.50;;;;;;;;;;5017518;28;20038;-79
2024/01/21 07:20:28;;;;;;;3.38;1.50;;;;;;;;;;5011907;28;20029;-79
2024/01/21 07:22:56;;;;;;;3.13;2.03;;;;;;;;;;5011088;28;20100;-79
2024/01/21 07:25:22;;;;;;;5.32;2.38;;;;;;;;;;5011432;28;20399;-79
2024/01/21 07:27:48;;;;;;;6.55;3.05;;;;;;;;;;5010246;28;20041;-80
2024/01/21 07:30:14;;;;;;;4.53;2.55;;;;;;;;;;5012178;28;20906;-78
2024/01/21 07:32:41;;;;;;;3.47;1.75;;;;;;;;;;5011656;28;20038;-78
2024/01/21 07:35:10;;;;;;;4.65;3.30;;;;;;;;;;5011728;28;20038;-80
2024/01/21 07:37:37;;;;;;;2.85;1.85;;;;;;;;;;5010434;28;20104;-80
2024/01/21 07:40:06;;;;;;;2.85;1.90;;;;;;;;;;5010812;28;20121;-78
2024/01/21 07:42:32;;;;;;;4.53;1.98;;;;;;;;;;5011493;28;20061;-79
2024/01/21 07:44:58;;;;;;;3.97;1.70;;;;;;;;;;5011837;28;20470;-79
2024/01/21 07:47:24;;;;;;;3.25;1.90;;;;;;;;;;5011650;28;20113;-78
2024/01/21 07:49:50;;;;;;;3.28;1.35;;;;;;;;;;5018287;28;20022;-78
2024/01/21 07:52:17;;;;;;;3.25;1.48;;;;;;;;;;5012902;28;20046;-79
2024/01/21 07:54:44;;;;;;;3.55;1.77;;;;;;;;;;4994442;28;20034;-79
2024/01/21 07:57:12;;;;;;;3.50;1.90;;;;;;;;;;5009440;28;20033;-79
2024/01/21 07:59:38;;;;;;;3.00;2.03;;;;;;;;;;5010153;28;20108;-79
2024/01/21 08:02:04;;;;;;;3.65;1.70;;;;;;;;;;5010157;28;20125;-79
2024/01/21 08:04:29;;;;;;;2.80;1.50;;;;;;;;;;5010563;28;20454;-78
2024/01/21 08:06:55;;;;;;;2.70;1.65;;;;;;;;;;5009913;28;20072;-79
2024/01/21 08:09:21;;;;;;;2.80;1.65;;;;;;;;;;5011628;28;20041;-77
2024/01/21 08:11:47;;;;;;;3.30;1.75;;;;;;;;;;5011250;28;20038;-80
2024/01/21 08:14:12;;;;;;;3.40;1.60;;;;;;;;;;5010941;28;20029;-80
2024/01/21 08:16:38;;;;;;;2.10;1.50;;;;;;;;;;5010913;28;20037;-78
2024/01/21 08:19:04;;;;;;;2.47;1.20;;;;;;;;;;5011391;28;20052;-80
2024/01/21 08:21:30;;;;;;;1.27;0.98;;;;;;;;;;5008127;28;20034;-78
2024/01/21 08:23:58;;;;;;;1.90;1.33;;;;;;;;;;4993970;28;20124;-80
2024/01/21 08:26:23;;;;;;;3.38;1.70;;;;;;;;;;5010004;28;20041;-78
2024/01/21 08:28:50;;;;;;;3.35;1.52;;;;;;;;;;5010006;28;20037;-78
2024/01/21 08:31:16;;;;;;;5.93;1.60;;;;;;;;;;5010034;28;20034;-76
2024/01/21 08:33:42;;;;;;;1.38;1.00;;;;;;;;;;5010408;28;20095;-78
2024/01/21 08:36:08;;;;;;;2.92;1.50;;;;;;;;;;5009515;28;20058;-80
2024/01/21 08:38:35;;;;;;;3.20;1.88;;;;;;;;;;5011820;28;20480;-79
2024/01/21 08:41:03;;;;;;;3.50;1.60;;;;;;;;;;4997315;28;20044;-79
2024/01/21 08:43:28;;;;;;;6.15;1.50;;;;;;;;;;5013678;28;20395;-81
2024/01/21 08:45:55;;;;;;;3.80;1.60;;;;;;;;;;5014801;28;20112;-79
2024/01/21 08:48:20;;;;;;;5.85;1.45;;;;;;;;;;5014947;28;20033;-79
2024/01/21 08:50:49;;;;;;;2.65;1.30;;;;;;;;;;5014776;28;20032;-80
2024/01/21 08:53:15;;;;;;;1.98;1.10;;;;;;;;;;5013272;28;20124;-79
2024/01/21 08:55:41;;;;;;;2.58;1.30;;;;;;;;;;5014448;28;20084;-80
2024/01/21 08:58:08;;;;;;;2.13;1.25;;;;;;;;;;5014853;28;20022;-80
2024/01/21 09:00:34;;;;;;;7.13;1.35;;;;;;;;;;5013757;28;20064;-79
2024/01/21 09:03:00;;;;;;;4.47;1.67;;;;;;;;;;5013976;28;20519;-80
2024/01/21 09:05:28;;;;;;;2.15;1.23;;;;;;;;;;4996820;28;20049;-80
2024/01/21 09:07:55;;;;;;;3.10;1.50;;;;;;;;;;5013245;28;20037;-79
2024/01/21 09:10:22;;;;;;;2.22;1.10;;;;;;;;;;5014734;28;20037;-79
2024/01/21 09:12:48;;;;;;;2.30;1.40;;;;;;;;;;5013243;28;20029;-78
2024/01/21 09:15:14;;;;;;;2.17;1.40;;;;;;;;;;5014345;28;20072;-79
2024/01/21 09:17:41;;;;;;;2.38;1.40;;;;;;;;;;5014264;28;20030;-78
2024/01/21 09:20:07;;;;;;;2.40;1.40;;;;;;;;;;5014516;28;20037;-78
2024/01/21 09:22:33;;;;;;;2.80;1.58;;;;;;;;;;5014121;28;20026;-78
2024/01/21 09:24:59;;;;;;;2.78;1.50;;;;;;;;;;5013939;28;20049;-79
2024/01/21 09:27:25;;;;;;;2.50;1.60;;;;;;;;;;5014265;28;20036;-80
2024/01/21 09:29:50;;;;;;;3.58;1.70;;;;;;;;;;5012608;28;20025;-81
2024/01/21 09:32:17;;;;;;;3.55;1.30;;;;;;;;;;5014268;28;20041;-81
2024/01/21 09:34:44;;;;;;;2.40;1.33;;;;;;;;;;5012844;28;20030;-78
2024/01/21 09:37:10;;;;;;;3.67;1.60;;;;;;;;;;5012255;28;20126;-78
2024/01/21 09:39:37;;;;;;;6.07;2.13;;;;;;;;;;5014092;28;20046;-78
2024/01/21 09:42:08;;;;;;;2.85;1.52;;;;;;;;;;4994518;28;20121;-78
2024/01/21 09:44:36;;;;;;;1.67;1.17;;;;;;;;;;5008298;28;20036;-78
2024/01/21 09:47:02;;;;;;;3.10;1.60;;;;;;;;;;5013553;28;20028;-80
2024/01/21 09:49:31;;;;;;;2.22;1.48;;;;;;;;;;5012170;28;20034;-81
2024/01/21 09:51:57;;;;;;;1.70;1.40;;;;;;;;;;5013691;28;20483;-79
2024/01/21 09:54:25;;;;;;;2.03;1.17;;;;;;;;;;5013737;28;20080;-77
2024/01/21 09:56:50;;;;;;;1.73;1.10;;;;;;;;;;5013050;28;20037;-79
2024/01/21 09:59:16;;;;;;;3.65;1.50;;;;;;;;;;4996135;28;20058;-77
2024/01/21 10:01:43;;;;;;;1.50;1.20;;;;;;;;;;5012326;28;20056;-80
2024/01/21 10:04:10;;;;;;;2.08;1.30;;;;;;;;;;5013709;28;20133;-79
2024/01/21 10:06:37;;;;;;;5.30;2.42;;;;;;;;;;5020875;28;20561;-78
2024/01/21 10:09:12;;;;;;;3.50;1.60;;;;;;;;;;5021767;28;20176;-79
2024/01/21 10:11:38;;;;;;;3.63;1.40;;;;;;;;;;5012383;28;20072;-79
2024/01/21 10:14:06;;;;;;;2.20;1.40;;;;;;;;;;5013404;28;20045;-78
2024/01/21 10:16:32;;;;;;;3.30;1.20;;;;;;;;;;4995916;28;20029;-79
2024/01/21 10:18:57;;;;;;;4.47;1.38;;;;;;;;;;5012214;28;20037;-79
2024/01/21 10:21:24;;;;;;;5.68;1.85;;;;;;;;;;5011845;28;20061;-78
2024/01/21 10:23:50;;;;;;;4.80;2.10;;;;;;;;;;5013125;28;20026;-78
2024/01/21 10:26:16;;;;;;;5.93;2.40;;;;;;;;;;5020501;28;20034;-79
2024/01/21 10:28:42;;;;;;;2.60;1.60;;;;;;;;;;5012099;28;20034;-79
2024/01/21 10:31:09;;;;;;;2.58;1.30;;;;;;;;;;5013529;28;20496;-78
2024/01/21 10:33:35;;;;;;;2.13;1.50;;;;;;;;;;5013006;28;20061;-78
2024/01/21 10:36:02;;;;;;;2.53;1.50;;;;;;;;;;5012925;28;20459;-78
2024/01/21 10:38:40;;;;;;;2.65;1.77;;;;;;;;;;5013008;28;20048;-78
2024/01/21 10:41:09;;;;;;;3.00;2.00;;;;;;;;;;5011797;28;20056;-77
2024/01/21 10:43:36;;;;;;;4.15;2.63;;;;;;;;;;5013126;28;20038;-78
2024/01/21 10:46:11;;;;;;;4.15;1.95;;;;;;;;;;5011169;28;20026;-79
2024/01/21 10:48:38;;;;;;;1.52;1.20;;;;;;;;;;5011581;28;20407;-78
2024/01/21 10:51:05;;;;;;;3.58;2.30;;;;;;;;;;5012786;28;20131;-81
2024/01/21 10:53:32;;;;;;;3.10;2.03;;;;;;;;;;5012761;28;20034;-80
2024/01/21 10:56:00;;;;;;;4.13;2.33;;;;;;;;;;5012370;28;20075;-80
2024/01/21 10:58:26;;;;;;;3.80;2.25;;;;;;;;;;5012224;28;20128;-79
2024/01/21 11:00:57;;;;;;;3.75;1.80;;;;;;;;;;5010590;28;20021;-79
2024/01/21 11:03:27;;;;;;;3.20;2.00;;;;;;;;;;5012672;28;20038;-79
2024/01/21 11:06:00;;;;;;;5.18;2.50;;;;;;;;;;5011307;28;20110;-79
2024/01/21 11:08:28;;;;;;;3.03;2.20;;;;;;;;;;5011150;28;20037;-79
2024/01/21 11:11:12;;;;;;;3.08;2.08;;;;;;;;;;5012870;28;20028;-79
2024/01/21 11:13:45;;;;;;;4.28;2.42;;;;;;;;;;5011902;28;20380;-79
2024/01/21 11:16:11;;;;;;;3.22;2.08;;;;;;;;;;5012532;28;20048;-79
2024/01/21 11:18:37;;;;;;;3.80;2.35;;;;;;;;;;5012059;28;20477;-79
2024/01/21 11:21:03;;;;;;;4.50;2.47;;;;;;;;;;5011128;28;20133;-78
2024/01/21 11:23:29;;;;;;;4.95;1.90;;;;;;;;;;5010761;28;20116;-78
2024/01/21 11:25:55;;;;;;;2.92;1.70;;;;;;;;;;5010484;28;20392;-79
2024/01/21 11:28:29;;;;;;;3.55;1.75;;;;;;;;;;5011983;28;20461;-77
2024/01/21 11:31:07;;;;;;;3.60;2.22;;;;;;;;;;5010905;28;20092;-78
2024/01/21 11:33:32;;;;;;;4.55;2.20;;;;;;;;;;5012251;28;20117;-78
2024/01/21 11:36:00;;;;;;;4.50;3.08;;;;;;;;;;5010319;28;20555;-79
2024/01/21 11:38:27;;;;;;;6.07;2.15;;;;;;;;;;5010607;28;20034;-77
2024/01/21 11:41:07;;;;;;;2.70;1.67;;;;;;;;;;5011586;28;20077;-78
2024/01/21 11:43:33;;;;;;;3.85;1.88;;;;;;;;;;5011683;28;20038;-77
2024/01/21 11:46:01;;;;;;;5.75;2.40;;;;;;;;;;5010499;28;20088;-78
2024/01/21 11:48:28;;;;;;;7.18;2.53;;;;;;;;;;5011779;28;20029;-77
2024/01/21 11:50:54;;;;;;;3.45;1.80;;;;;;;;;;5012146;28;20476;-79
2024/01/21 11:53:20;;;;;;;5.57;2.40;;;;;;;;;;5011586;28;20071;-77
2024/01/21 11:55:46;;;;;;;5.32;2.97;;;;;;;;;;5011257;28;20688;-78
2024/01/21 11:58:14;;;;;;;3.38;1.92;;;;;;;;;;4994491;28;20065;-77
2024/01/21 12:00:40;;;;;;;6.13;3.42;;;;;;;;;;4994492;28;20046;-78
2024/01/21 12:03:06;;;;;;;4.57;2.35;;;;;;;;;;5011138;28;20022;-78
2024/01/21 12:05:32;;;;;;;4.85;2.80;;;;;;;;;;5018423;28;20526;-77
2024/01/21 12:08:00;;;;;;;5.70;3.42;;;;;;;;;;5011997;28;20029;-78
2024/01/21 12:10:25;;;;;;;6.32;2.60;;;;;;;;;;5010370;28;20032;-77
2024/01/21 12:12:51;;;;;;;5.72;2.83;;;;;;;;;;5011213;28;20418;-77
2024/01/21 12:15:17;;;;;;;6.63;3.10;;;;;;;;;;5010150;28;20042;-77
2024/01/21 12:17:54;;;;;;;3.78;2.00;;;;;;;;;;5010063;28;20053;-77
2024/01/21 12:20:21;;;;;;;6.45;2.90;;;;;;;;;;5002209;28;20056;-77
2024/01/21 12:22:49;;;;;;;5.95;3.00;;;;;;;;;;5011547;28;20042;-78
2024/01/21 12:25:17;;;;;;;3.55;2.53;;;;;;;;;;5011421;28;20056;-77
2024/01/21 12:27:46;;;;;;;5.57;2.83;;;;;;;;;;5011697;28;20033;-78
2024/01/21 12:30:13;;;;;;;4.82;2.35;;;;;;;;;;5009870;28;20435;-79
2024/01/21 12:32:44;;;;;;;4.00;2.00;;;;;;;;;;5016009;28;20025;-78
2024/01/21 12:35:10;;;;;;;3.65;2.20;;;;;;;;;;5011268;28;20030;-79
2024/01/21 12:37:36;;;;;;;4.35;2.30;;;;;;;;;;5010142;28;20148;-79
2024/01/21 12:40:02;;;;;;;7.20;3.35;;;;;;;;;;5012215;28;20391;-79
2024/01/21 12:42:28;;;;;;;4.22;2.33;;;;;;;;;;5010094;28;20033;-79
2024/01/21 12:44:54;;;;;;;5.93;2.30;;;;;;;;;;5011158;28;20400;-79
2024/01/21 12:47:20;;;;;;;2.63;1.67;;;;;;;;;;4995120;28;20018;-79
2024/01/21 12:49:45;;;;;;;8.02;2.70;;;;;;;;;;5011262;28;20070;-78
2024/01/21 12:52:12;;;;;;;4.72;2.83;;;;;;;;;;5010930;28;20038;-79
2024/01/21 12:54:37;;;;;;;4.25;2.63;;;;;;;;;;5005673;28;20118;-79
2024/01/21 12:57:03;;;;;;;3.85;2.78;;;;;;;;;;5015401;28;20034;-79
2024/01/21 12:59:30;;;;;;;7.05;3.65;;;;;;;;;;5010915;28;20056;-78
2024/01/21 13:01:56;;;;;;;7.07;4.25;;;;;;;;;;5010673;28;20030;-79
2024/01/21 13:04:22;;;;;;;3.28;2.22;;;;;;;;;;5011311;28;20057;-79
2024/01/21 13:06:48;;;;;;;7.07;2.50;;;;;;;;;;5011828;28;20058;-79
2024/01/21 13:09:16;;;;;;;7.50;4.53;;;;;;;;;;5009756;28;20172;-79
2024/01/21 13:11:43;;;;;;;3.67;2.60;;;;;;;;;;4990688;28;20439;-79
2024/01/21 13:14:08;;;;;;;2.90;1.73;;;;;;;;;;5008613;28;20057;-79
2024/01/21 13:16:34;;;;;;;2.38;1.45;;;;;;;;;;5009727;28;20026;-79
2024/01/21 13:19:01;;;;;;;2.92;2.08;;;;;;;;;;5010816;28;20037;-80
2024/01/21 13:21:27;;;;;;;3.80;2.28;;;;;;;;;;5009632;28;20453;-78
2024/01/21 13:23:54;;;;;;;3.03;2.05;;;;;;;;;;5009749;28;20460;-78
2024/01/21 13:26:19;;;;;;;5.25;3.10;;;;;;;;;;5012591;28;20040;-79
2024/01/21 13:31:30;;;;;;;3.55;2.20;;;;;;;;;;5003464;28;20149;-78
2024/01/21 13:33:55;;;;;;;4.35;2.10;;;;;;;;;;5028011;28;20029;-80
2024/01/21 13:36:21;;;;;;;5.22;2.85;;;;;;;;;;5030880;28;20091;-78
2024/01/21 13:38:47;;;;;;;7.30;2.53;;;;;;;;;;5033076;28;20041;-78
2024/01/21 13:41:13;;;;;;;6.28;2.90;;;;;;;;;;5032849;28;20040;-77
2024/01/21 13:43:39;;;;;;;3.83;2.50;;;;;;;;;;5033096;28;20040;-77
2024/01/21 13:46:05;;;;;;;3.53;2.25;;;;;;;;;;5031721;28;20099;-79
2024/01/21 13:48:31;;;;;;;7.07;3.20;;;;;;;;;;5032056;28;20047;-78
2024/01/21 13:50:56;;;;;;;4.55;2.75;;;;;;;;;;5032961;28;20045;-77
2024/01/21 13:53:25;;;;;;;5.28;2.25;;;;;;;;;;5012529;28;20038;-78
2024/01/21 13:55:51;;;;;;;3.70;2.30;;;;;;;;;;5014183;28;20040;-77
2024/01/21 13:58:19;;;;;;;5.82;2.63;;;;;;;;;;5012130;28;20033;-78
2024/01/21 14:00:46;;;;;;;3.08;1.50;;;;;;;;;;5011676;28;20664;-78
2024/01/21 14:03:12;;;;;;;3.70;2.10;;;;;;;;;;5012619;28;20029;-78
2024/01/21 14:05:38;;;;;;;4.95;2.47;;;;;;;;;;5012969;28;20034;-79
2024/01/21 14:08:07;;;;;;;4.97;2.70;;;;;;;;;;5013459;28;20472;-80
2024/01/21 14:10:33;;;;;;;4.15;2.80;;;;;;;;;;5014070;28;20038;-79
2024/01/21 14:12:59;;;;;;;4.65;2.30;;;;;;;;;;5012497;28;20037;-77
2024/01/21 14:15:26;;;;;;;4.85;2.20;;;;;;;;;;5010215;28;20037;-80
2024/01/21 14:17:54;;;;;;;5.55;2.00;;;;;;;;;;4979154;28;20144;-80
2024/01/21 14:20:19;;;;;;;2.00;1.30;;;;;;;;;;5014473;28;20433;-81
2024/01/21 14:22:45;;;;;;;3.63;2.20;;;;;;;;;;5014416;28;20159;-80
2024/01/21 14:25:18;;;;;;;4.15;1.92;;;;;;;;;;5013115;28;20048;-80
2024/01/21 14:27:46;;;;;;;2.60;1.40;;;;;;;;;;5013572;28;20034;-80
2024/01/21 14:30:19;;;;;;;5.07;2.67;;;;;;;;;;4995273;28;20037;-81
2024/01/21 14:32:46;;;;;;;3.22;2.05;;;;;;;;;;4996104;28;20038;-80
2024/01/21 14:35:12;;;;;;;6.13;2.00;;;;;;;;;;5010385;28;20060;-79
2024/01/21 14:37:38;;;;;;;3.30;1.98;;;;;;;;;;5011234;28;20030;-80
2024/01/21 14:40:04;;;;;;;5.45;1.90;;;;;;;;;;5013516;28;20028;-81
2024/01/21 14:42:30;;;;;;;3.55;2.00;;;;;;;;;;5013789;28;20060;-83
2024/01/21 14:44:55;;;;;;;4.53;2.60;;;;;;;;;;5014128;28;20492;-82
2024/01/21 14:47:21;;;;;;;3.55;1.98;;;;;;;;;;5012748;28;20022;-82
2024/01/21 14:49:47;;;;;;;4.55;2.42;;;;;;;;;;5013106;28;20079;-80
2024/01/21 14:52:13;;;;;;;6.75;2.55;;;;;;;;;;5011828;28;20492;-80
2024/01/21 14:54:41;;;;;;;7.03;2.83;;;;;;;;;;5012115;28;20025;-81
2024/01/21 14:57:08;;;;;;;4.60;2.10;;;;;;;;;;5011620;28;20030;-81
2024/01/21 14:59:34;;;;;;;4.45;2.42;;;;;;;;;;5012491;28;20038;-81